Etusivu
METAR-TAF:

METAR-TAF

Lentoasemat :

Kristianstad, Ruotsi

Leveyspiiri: 55-55N, Pituuspiiri: 014-05E, korkeus merenpinnasta: 23 m

Tämänhetkinen sää

Tämä raportti tehtiin 24 minuuttia sitten, kello 05.20 UTC
Tuuli 10 kn lännestä
Lämpötila 12°C
Kosteus 76%
Ilmanpaine 1009 hPa
Näkyvyys 10 km tai enemmän

METAR: ESMK 250520Z AUTO 26010KT 9999 NCD 12/08 Q1009

Aika: 07:44 (05:44 UTC)

Sääennuste

Tämä raportti tehtiin 12 tuntia ja 41 minuuttia sitten, kello 17.03 UTC
Ennuste voimassa 24. päivästä klo 18 UTC - 24. päivään klo 20 UTC
Tuuli 10 kn lännestä/lounaasta
Näkyvyys 10 km tai enemmän
Hajanaisia pilviä 4000 ft:n korkeudessa

TAF: ESMK 241703Z 2418/2420 25010KT 9999 SCT040

Säähavainnot ja -ennusteet yli 4000 lentoasemalta (METAR- ja TAF-raportit).

Käytössä olevat sääasemat on merkitty karttaan keltaisilla ja punaisilla pisteillä.

Aseta hiiri pisteen päälle nähdäksesi sääaseman nimen.

Klikkaa sitten nähdäksesi säähavainnot ja -ennusteet.

Kartan vaihtaminen: klikkaa mustalla rastilla varustettuja vihreitä pisteitä, niin voit zoomata sisään; viivalla varustettua vihreää pistettä, niin voit zoomata ulos tai vihreitä nuolia, niin pääset viereisille kartoille.


METAR-TAF: